createdAt,value
2022-08-22T00:00:16.921Z,58.80
2022-08-22T00:02:42.424Z,44.90
2022-08-22T00:02:43.552Z,50.30
2022-08-22T00:02:45.811Z,46.30
2022-08-22T00:02:52.801Z,43.20
2022-08-22T00:02:57.280Z,45.00
2022-08-22T00:03:10.387Z,57.00
2022-08-22T00:03:25.055Z,59.10
2022-08-22T00:06:22.191Z,59.30
2022-08-22T00:09:03.908Z,59.60
2022-08-22T00:11:46.017Z,59.90
2022-08-22T00:14:12.776Z,60.10
2022-08-22T00:16:45.934Z,60.30
2022-08-22T00:19:18.676Z,60.60
2022-08-22T00:21:50.067Z,60.60
2022-08-22T00:24:16.804Z,60.80
2022-08-22T00:26:49.012Z,60.80
2022-08-22T00:29:19.447Z,60.90
2022-08-22T00:31:48.873Z,61.00
2022-08-22T00:34:15.612Z,61.10
2022-08-22T00:36:43.463Z,61.20
2022-08-22T00:39:34.095Z,61.20
2022-08-22T00:42:15.930Z,61.30
2022-08-22T00:45:13.354Z,61.50
2022-08-22T00:47:40.054Z,61.50
2022-08-22T00:50:19.333Z,61.70
2022-08-22T00:53:04.073Z,61.80
2022-08-22T00:55:37.167Z,61.80
2022-08-22T00:58:16.119Z,61.80
2022-08-22T01:00:45.009Z,61.90
2022-08-22T01:03:11.769Z,62.00
2022-08-22T01:05:41.353Z,62.10
2022-08-22T01:08:14.154Z,62.30
2022-08-22T01:10:41.324Z,62.40
2022-08-22T01:13:14.138Z,62.50
2022-08-22T01:15:42.609Z,62.60
2022-08-22T01:18:12.331Z,62.70
2022-08-22T01:20:39.096Z,62.80
2022-08-22T01:23:05.821Z,62.80
2022-08-22T01:25:44.906Z,62.90
2022-08-22T01:28:14.531Z,63.10
2022-08-22T01:30:57.997Z,63.30
2022-08-22T01:33:36.867Z,63.40
2022-08-22T01:36:21.063Z,63.40
2022-08-22T01:39:01.357Z,63.40
2022-08-22T01:41:28.106Z,63.60
2022-08-22T01:44:00.535Z,63.70
2022-08-22T01:46:33.080Z,63.80
2022-08-22T01:49:17.926Z,63.90
2022-08-22T01:51:53.444Z,64.10
2022-08-22T01:54:39.359Z,64.20
2022-08-22T01:57:07.950Z,64.30
2022-08-22T01:59:34.804Z,64.30
2022-08-22T02:02:15.299Z,64.40
2022-08-22T02:04:52.279Z,64.50
2022-08-22T02:07:35.330Z,64.60
2022-08-22T02:10:10.070Z,64.70
2022-08-22T02:12:49.672Z,64.90
2022-08-22T02:15:22.914Z,65.10
2022-08-22T02:17:59.149Z,65.20
2022-08-22T02:20:37.833Z,65.30
2022-08-22T02:23:07.422Z,65.40
2022-08-22T02:25:45.783Z,65.50
2022-08-22T02:28:14.353Z,65.60
2022-08-22T02:30:44.258Z,65.70
2022-08-22T02:33:14.753Z,65.80
2022-08-22T02:36:00.348Z,66.00
2022-08-22T02:38:39.202Z,66.00
2022-08-22T02:41:32.460Z,66.20
2022-08-22T02:44:14.045Z,66.40
2022-08-22T02:46:51.370Z,66.50
2022-08-22T02:49:36.074Z,66.70
2022-08-22T02:52:15.201Z,66.80
2022-08-22T02:54:47.382Z,66.80
2022-08-22T02:57:17.199Z,67.00
2022-08-22T03:00:30.818Z,67.20
2022-08-22T03:03:14.256Z,67.30
2022-08-22T03:05:46.899Z,67.30
2022-08-22T03:08:21.181Z,67.30
2022-08-22T03:10:54.684Z,67.30
2022-08-22T03:13:37.599Z,67.40
2022-08-22T03:16:07.149Z,67.50
2022-08-22T03:18:45.517Z,67.50
2022-08-22T03:21:19.091Z,67.40
2022-08-22T03:23:49.041Z,67.40
2022-08-22T03:26:15.737Z,67.40
2022-08-22T03:28:59.313Z,67.50
2022-08-22T03:31:28.270Z,67.60
2022-08-22T03:34:13.838Z,67.70
2022-08-22T03:36:45.770Z,67.70
2022-08-22T03:39:18.950Z,67.70
2022-08-22T03:42:09.440Z,67.70
2022-08-22T03:45:01.140Z,67.80
2022-08-22T03:47:38.645Z,67.80
2022-08-22T03:50:14.843Z,67.90
2022-08-22T03:53:16.255Z,68.00
2022-08-22T03:55:45.646Z,68.10
2022-08-22T03:58:33.740Z,68.20
2022-08-22T04:01:07.088Z,68.20
2022-08-22T04:03:58.294Z,68.30
2022-08-22T04:06:38.897Z,68.40
2022-08-22T04:09:22.195Z,68.50
2022-08-22T04:12:08.806Z,68.60
2022-08-22T04:14:47.614Z,68.80
2022-08-22T04:17:28.933Z,68.80
2022-08-22T04:20:15.188Z,68.80
2022-08-22T04:22:46.819Z,69.00
2022-08-22T04:25:23.444Z,69.00
2022-08-22T04:28:22.599Z,69.10
2022-08-22T04:31:12.510Z,69.20
2022-08-22T04:34:01.407Z,69.30
2022-08-22T04:36:35.040Z,69.40
2022-08-22T04:39:09.772Z,69.50
2022-08-22T04:42:00.636Z,69.60
2022-08-22T04:44:40.996Z,69.60
2022-08-22T04:47:22.863Z,69.70
2022-08-22T04:49:58.295Z,69.80
2022-08-22T04:52:43.919Z,69.80
2022-08-22T04:55:25.962Z,69.90
2022-08-22T04:58:12.134Z,69.90
2022-08-22T05:00:45.572Z,69.90
2022-08-22T05:03:15.077Z,69.90
2022-08-22T05:05:45.023Z,69.80
2022-08-22T05:08:13.314Z,69.70
2022-08-22T05:10:42.257Z,69.70
2022-08-22T05:13:12.021Z,69.70
2022-08-22T05:15:45.913Z,69.50
2022-08-22T05:18:14.595Z,69.40
2022-08-22T05:20:44.681Z,69.30
2022-08-22T05:23:17.217Z,69.20
2022-08-22T05:25:45.722Z,69.30
2022-08-22T05:28:20.894Z,69.10
2022-08-22T05:30:48.172Z,68.40
2022-08-22T05:33:25.501Z,67.60
2022-08-22T05:35:57.920Z,67.10
2022-08-22T05:38:30.381Z,67.10
2022-08-22T05:41:00.770Z,67.10
2022-08-22T05:43:27.985Z,67.20
2022-08-22T05:45:57.204Z,67.30
2022-08-22T05:48:35.016Z,67.40
2022-08-22T05:51:14.594Z,67.50
2022-08-22T05:53:44.692Z,67.40
2022-08-22T05:56:13.939Z,67.40
2022-08-22T05:58:43.711Z,67.30
2022-08-22T06:01:16.283Z,67.20
2022-08-22T06:03:45.900Z,66.90
2022-08-22T06:06:16.405Z,66.60
2022-08-22T06:08:46.007Z,66.40
2022-08-22T06:11:18.019Z,66.20
2022-08-22T06:13:51.594Z,65.90
2022-08-22T06:16:22.497Z,65.40
2022-08-22T06:18:50.190Z,64.70
2022-08-22T06:21:39.347Z,63.80
2022-08-22T06:24:08.843Z,62.70
2022-08-22T06:26:38.014Z,61.90
2022-08-22T06:29:06.369Z,61.60
2022-08-22T06:31:36.073Z,61.60
2022-08-22T06:34:05.375Z,61.70
2022-08-22T06:36:34.154Z,61.80
2022-08-22T06:39:01.290Z,61.70
2022-08-22T06:41:29.553Z,61.60
2022-08-22T06:44:00.323Z,61.50
2022-08-22T06:46:29.193Z,61.40
2022-08-22T06:49:01.162Z,61.20
2022-08-22T06:51:31.281Z,61.00
2022-08-22T06:54:06.459Z,60.90
2022-08-22T06:56:43.198Z,60.80
2022-08-22T06:59:17.299Z,60.70
2022-08-22T07:01:58.921Z,60.60
2022-08-22T07:04:26.865Z,60.40
2022-08-22T07:06:55.720Z,60.10
2022-08-22T07:09:27.079Z,59.70
2022-08-22T07:11:56.412Z,59.50
2022-08-22T07:14:29.745Z,59.00
2022-08-22T07:17:04.482Z,58.80
2022-08-22T07:19:37.157Z,58.30
2022-08-22T07:22:23.438Z,58.00
2022-08-22T07:25:00.469Z,57.70
2022-08-22T07:27:39.085Z,57.30
2022-08-22T07:30:12.167Z,56.80
2022-08-22T07:32:45.482Z,56.60
2022-08-22T07:35:25.420Z,56.10
2022-08-22T07:37:58.410Z,55.60
2022-08-22T07:40:32.710Z,55.20
2022-08-22T07:43:15.918Z,54.90
2022-08-22T07:45:52.296Z,54.60
2022-08-22T07:48:26.150Z,54.60
2022-08-22T07:51:05.800Z,54.60
2022-08-22T07:53:47.246Z,54.50
2022-08-22T07:56:25.512Z,54.60
2022-08-22T07:58:55.397Z,54.90
2022-08-22T08:01:23.247Z,54.90
2022-08-22T08:04:04.054Z,55.00
2022-08-22T08:06:32.450Z,55.00
2022-08-22T08:08:59.370Z,54.80
2022-08-22T08:11:27.661Z,55.00
2022-08-22T08:13:58.090Z,55.00
2022-08-22T08:16:27.488Z,54.90
2022-08-22T08:18:57.057Z,54.90
2022-08-22T08:21:29.794Z,54.50
2022-08-22T08:23:56.989Z,54.40
2022-08-22T08:26:27.219Z,54.20
2022-08-22T08:28:55.565Z,54.10
2022-08-22T08:31:25.146Z,53.90
2022-08-22T08:33:58.114Z,53.40
2022-08-22T08:36:30.806Z,52.90
2022-08-22T08:41:31.020Z,49.50
2022-08-22T08:43:57.817Z,47.60
2022-08-22T08:46:34.625Z,45.10
2022-08-22T08:49:24.753Z,44.00
2022-08-22T08:52:04.022Z,42.00
2022-08-22T08:54:56.800Z,40.80
2022-08-22T08:57:58.751Z,38.00
2022-08-22T09:00:45.720Z,36.90
2022-08-22T09:03:42.034Z,36.20
2022-08-22T09:06:52.878Z,34.90
2022-08-22T09:09:52.258Z,33.70
2022-08-22T09:12:25.923Z,33.80
2022-08-22T09:15:15.407Z,33.70
2022-08-22T09:18:00.426Z,31.90
2022-08-22T09:20:48.605Z,31.40
2022-08-22T09:23:53.799Z,31.00
2022-08-22T09:26:45.943Z,30.90
2022-08-22T09:29:29.066Z,30.80
2022-08-22T09:32:39.191Z,30.80
2022-08-22T09:35:30.521Z,30.30
2022-08-22T09:38:47.849Z,30.10
2022-08-22T09:41:33.068Z,29.20
2022-08-22T09:44:12.120Z,28.90
2022-08-22T09:46:53.155Z,28.80
2022-08-22T09:50:04.967Z,28.40
2022-08-22T09:52:54.765Z,28.70
2022-08-22T09:55:35.034Z,28.20
2022-08-22T09:58:21.627Z,27.40
2022-08-22T10:00:51.381Z,27.50
2022-08-22T10:03:42.079Z,28.10
2022-08-22T10:06:14.262Z,28.20
2022-08-22T10:08:47.019Z,28.20
2022-08-22T10:11:13.722Z,28.10
2022-08-22T10:14:01.560Z,28.10
2022-08-22T10:16:40.549Z,27.90
2022-08-22T10:19:07.295Z,28.40
2022-08-22T10:21:35.370Z,28.40
2022-08-22T10:24:24.604Z,28.50
2022-08-22T10:26:54.382Z,29.00
2022-08-22T10:29:30.061Z,28.80
2022-08-22T10:32:00.073Z,29.20
2022-08-22T10:34:37.094Z,29.40
2022-08-22T10:37:23.877Z,29.60
2022-08-22T10:40:11.111Z,29.80
2022-08-22T10:42:41.786Z,30.10
2022-08-22T10:45:14.883Z,30.10
2022-08-22T10:47:57.411Z,30.00
2022-08-22T10:50:31.870Z,30.10
2022-08-22T10:53:35.053Z,30.10
2022-08-22T10:56:14.315Z,29.90
2022-08-22T10:59:01.153Z,30.30
2022-08-22T11:01:37.845Z,30.70
2022-08-22T11:04:15.219Z,30.80
2022-08-22T11:06:45.420Z,31.20
2022-08-22T11:09:15.859Z,31.50
2022-08-22T11:11:49.692Z,31.50
2022-08-22T11:14:24.941Z,31.40
2022-08-22T11:16:58.362Z,31.30
2022-08-22T11:19:34.260Z,31.30
2022-08-22T11:22:10.247Z,31.20
2022-08-22T11:24:55.694Z,31.20
2022-08-22T11:27:43.634Z,31.30
2022-08-22T11:30:18.706Z,31.50
2022-08-22T11:33:08.542Z,31.50
2022-08-22T11:35:36.301Z,31.70
2022-08-22T11:38:08.879Z,31.70
2022-08-22T11:40:47.040Z,31.90
2022-08-22T11:43:32.786Z,31.80
2022-08-22T11:46:02.974Z,31.70
2022-08-22T11:48:31.947Z,31.60
2022-08-22T11:51:13.144Z,31.70
2022-08-22T11:53:47.356Z,31.80
2022-08-22T11:56:34.512Z,31.50
2022-08-22T11:59:04.916Z,31.20
2022-08-22T12:01:42.876Z,30.70
2022-08-22T12:04:28.472Z,30.60
2022-08-22T12:07:13.761Z,30.30
2022-08-22T12:09:58.668Z,29.80
2022-08-22T12:12:30.003Z,29.80
2022-08-22T12:14:57.074Z,29.90
2022-08-22T12:17:55.973Z,29.80
2022-08-22T12:20:16.808Z,29.70
2022-08-22T12:22:50.906Z,29.60
2022-08-22T12:25:36.273Z,29.70
2022-08-22T12:28:11.336Z,29.30
2022-08-22T12:30:46.682Z,29.30
2022-08-22T12:33:14.296Z,29.10
2022-08-22T12:36:12.631Z,29.00
2022-08-22T12:39:04.196Z,29.10
2022-08-22T12:41:38.166Z,29.40
2022-08-22T12:44:23.669Z,29.60
2022-08-22T12:47:09.274Z,29.90
2022-08-22T12:49:44.920Z,30.30
2022-08-22T12:52:23.122Z,30.30
2022-08-22T12:55:02.340Z,30.10
2022-08-22T12:57:41.167Z,29.70
2022-08-22T13:00:22.848Z,29.50
2022-08-22T13:02:54.030Z,29.50
2022-08-22T13:05:23.337Z,29.30
2022-08-22T13:07:54.558Z,29.20
2022-08-22T13:10:37.587Z,28.70
2022-08-22T13:13:12.262Z,28.80
2022-08-22T13:15:46.444Z,28.80
2022-08-22T13:18:30.739Z,28.90
2022-08-22T13:21:00.844Z,28.60
2022-08-22T13:23:34.267Z,28.50
2022-08-22T13:26:16.355Z,28.70
2022-08-22T13:29:24.658Z,28.90
2022-08-22T13:31:53.355Z,28.90
2022-08-22T13:34:25.001Z,29.30
2022-08-22T13:36:58.185Z,29.00
2022-08-22T13:39:35.455Z,28.80
2022-08-22T13:42:14.176Z,28.80
2022-08-22T13:44:48.528Z,29.00
2022-08-22T13:47:18.778Z,29.20
2022-08-22T13:49:54.468Z,29.40
2022-08-22T13:52:38.126Z,29.60
2022-08-22T13:55:22.217Z,29.60
2022-08-22T13:57:58.142Z,29.50
2022-08-22T14:00:56.533Z,29.50
2022-08-22T14:03:39.745Z,29.30
2022-08-22T14:06:35.305Z,29.60
2022-08-22T14:09:09.407Z,29.40
2022-08-22T14:11:43.203Z,29.10
2022-08-22T14:14:10.235Z,29.00
2022-08-22T14:16:48.848Z,28.70
2022-08-22T14:19:23.723Z,28.80
2022-08-22T14:21:59.632Z,28.80
2022-08-22T14:24:28.420Z,28.70
2022-08-22T14:26:57.909Z,28.50
2022-08-22T14:29:26.210Z,28.50
2022-08-22T14:31:58.047Z,28.40
2022-08-22T14:34:25.911Z,28.50
2022-08-22T14:37:01.768Z,28.60
2022-08-22T14:39:48.800Z,28.50
2022-08-22T14:42:19.046Z,28.50
2022-08-22T14:44:51.985Z,27.80
2022-08-22T14:47:54.438Z,27.70
2022-08-22T14:50:36.952Z,27.90
2022-08-22T14:53:05.563Z,28.10
2022-08-22T14:55:32.852Z,27.90
2022-08-22T14:58:05.996Z,28.00
2022-08-22T15:00:40.931Z,28.00
2022-08-22T15:03:09.495Z,28.20
2022-08-22T15:05:45.636Z,28.40
2022-08-22T15:08:20.269Z,28.60
2022-08-22T15:11:04.970Z,28.60
2022-08-22T15:13:34.945Z,28.80
2022-08-22T15:16:13.192Z,29.00
2022-08-22T15:18:41.239Z,29.30
2022-08-22T15:27:17.370Z,30.00
2022-08-22T15:29:49.559Z,30.10
2022-08-22T15:32:20.300Z,29.70
2022-08-22T15:34:52.318Z,29.80
2022-08-22T15:37:19.482Z,29.90
2022-08-22T15:40:02.658Z,30.00
2022-08-22T15:42:34.681Z,30.00
2022-08-22T15:45:02.361Z,30.20
2022-08-22T15:47:41.364Z,30.30
2022-08-22T15:50:10.251Z,30.50
2022-08-22T15:53:05.238Z,30.80
2022-08-22T15:55:34.455Z,31.10
2022-08-22T15:58:07.607Z,31.20
2022-08-22T16:00:41.452Z,31.30
2022-08-22T16:03:23.946Z,31.40
2022-08-22T16:05:59.091Z,31.50
2022-08-22T16:08:33.120Z,31.50
2022-08-22T16:11:02.964Z,31.50
2022-08-22T16:13:29.891Z,31.70
2022-08-22T16:16:00.067Z,31.70
2022-08-22T16:18:44.867Z,31.60
2022-08-22T16:21:15.760Z,31.70
2022-08-22T16:23:49.741Z,31.50
2022-08-22T16:26:22.552Z,31.50
2022-08-22T16:28:59.263Z,31.80
2022-08-22T16:31:44.199Z,32.20
2022-08-22T16:34:16.977Z,31.90
2022-08-22T16:36:52.262Z,32.00
2022-08-22T16:39:22.152Z,32.10
2022-08-22T16:41:54.310Z,32.60
2022-08-22T16:44:21.052Z,32.80
2022-08-22T16:46:48.727Z,32.80
2022-08-22T16:49:44.780Z,32.80
2022-08-22T16:52:20.377Z,32.70
2022-08-22T16:54:48.170Z,32.70
2022-08-22T16:57:33.667Z,32.70
2022-08-22T17:00:03.179Z,32.60
2022-08-22T17:02:41.576Z,32.70
2022-08-22T17:05:11.424Z,32.80
2022-08-22T17:07:47.067Z,32.90
2022-08-22T17:10:32.260Z,33.00
2022-08-22T17:13:10.985Z,33.10
2022-08-22T17:15:43.602Z,33.30
2022-08-22T17:18:10.582Z,33.30
2022-08-22T17:20:38.749Z,33.50
2022-08-22T17:23:18.220Z,33.50
2022-08-22T17:25:53.033Z,33.60
2022-08-22T17:28:39.797Z,33.80
2022-08-22T17:31:06.510Z,33.90
2022-08-22T17:33:53.247Z,34.20
2022-08-22T17:36:38.513Z,34.30
2022-08-22T17:39:37.540Z,34.30
2022-08-22T17:42:04.366Z,34.50
2022-08-22T17:44:50.040Z,34.80
2022-08-22T17:47:22.339Z,35.00
2022-08-22T17:50:04.913Z,35.20
2022-08-22T17:52:34.392Z,35.40
2022-08-22T17:55:18.106Z,35.50
2022-08-22T17:57:53.472Z,35.60
2022-08-22T18:00:26.560Z,35.70
2022-08-22T18:02:56.091Z,35.90
2022-08-22T18:05:29.436Z,36.00
2022-08-22T18:08:02.702Z,36.10
2022-08-22T18:10:34.793Z,36.30
2022-08-22T18:13:07.203Z,36.40
2022-08-22T18:15:41.784Z,36.50
2022-08-22T18:18:30.360Z,36.60
2022-08-22T18:21:11.667Z,36.80
2022-08-22T18:23:44.450Z,36.90
2022-08-22T18:26:20.726Z,37.00
2022-08-22T18:29:06.557Z,37.20
2022-08-22T18:31:38.883Z,37.30
2022-08-22T18:34:13.054Z,37.40
2022-08-22T18:36:45.982Z,37.60
2022-08-22T18:39:42.817Z,37.80
2022-08-22T18:42:18.283Z,37.90
2022-08-22T18:44:45.473Z,38.10
2022-08-22T18:47:14.747Z,38.40
2022-08-22T18:49:43.943Z,38.60
2022-08-22T18:52:14.075Z,38.80
2022-08-22T18:54:49.972Z,38.90
2022-08-22T18:57:42.479Z,39.00
2022-08-22T19:00:13.395Z,39.10
2022-08-22T19:02:55.844Z,39.20
2022-08-22T19:05:32.831Z,39.30
2022-08-22T19:08:09.175Z,39.50
2022-08-22T19:10:50.802Z,39.60
2022-08-22T19:13:21.544Z,39.80
2022-08-22T19:15:51.413Z,39.90
2022-08-22T19:18:20.928Z,40.00
2022-08-22T19:21:26.515Z,40.20
2022-08-22T19:23:54.964Z,40.20
2022-08-22T19:26:54.135Z,40.30
2022-08-22T19:29:24.285Z,40.40
2022-08-22T19:31:52.575Z,40.60
2022-08-22T19:34:28.479Z,40.70
2022-08-22T19:37:33.066Z,40.80
2022-08-22T19:40:05.211Z,40.80
2022-08-22T19:42:34.346Z,40.80
2022-08-22T19:45:03.173Z,40.70
2022-08-22T19:47:34.755Z,40.70
2022-08-22T19:50:09.811Z,40.80
2022-08-22T19:52:55.528Z,40.80
2022-08-22T19:55:26.332Z,40.90
2022-08-22T19:57:54.027Z,40.90
2022-08-22T20:00:23.857Z,41.00
2022-08-22T20:02:50.584Z,41.10
2022-08-22T20:05:31.905Z,41.20
2022-08-22T20:08:10.477Z,41.30
2022-08-22T20:10:57.487Z,41.30
2022-08-22T20:13:30.147Z,41.40
2022-08-22T20:16:16.239Z,41.50
2022-08-22T20:19:09.917Z,41.60
2022-08-22T20:21:45.992Z,41.80
2022-08-22T20:24:15.508Z,41.90
2022-08-22T20:27:09.998Z,42.00
2022-08-22T20:29:34.507Z,42.00
2022-08-22T20:32:02.226Z,42.10
2022-08-22T20:34:30.127Z,42.20
2022-08-22T20:37:16.080Z,42.40
2022-08-22T20:40:07.857Z,42.50
2022-08-22T20:42:53.874Z,42.50
2022-08-22T20:45:22.969Z,42.70
2022-08-22T20:47:55.158Z,42.80
2022-08-22T20:50:24.543Z,42.90
2022-08-22T20:53:09.277Z,42.90
2022-08-22T20:55:36.420Z,42.90
2022-08-22T20:58:20.379Z,43.10
2022-08-22T21:00:48.737Z,43.20
2022-08-22T21:03:24.747Z,43.30
2022-08-22T21:05:51.818Z,43.40
2022-08-22T21:08:19.697Z,43.50
2022-08-22T21:11:14.850Z,43.60
2022-08-22T21:13:41.640Z,43.70
2022-08-22T21:16:13.677Z,43.70
2022-08-22T21:18:41.597Z,43.80
2022-08-22T21:21:14.765Z,43.90
2022-08-22T21:23:49.493Z,43.90
2022-08-22T21:26:25.047Z,44.00
2022-08-22T21:29:03.935Z,44.10
2022-08-22T21:31:41.444Z,44.20
2022-08-22T21:34:15.534Z,44.30
2022-08-22T21:36:42.356Z,44.50
2022-08-22T21:39:35.879Z,44.70
2022-08-22T21:42:02.589Z,44.80
2022-08-22T21:44:34.187Z,44.80
2022-08-22T21:47:14.809Z,44.90
2022-08-22T21:50:07.268Z,45.00
2022-08-22T21:52:38.228Z,45.00
2022-08-22T21:55:26.854Z,45.10
2022-08-22T21:58:35.750Z,45.10
2022-08-22T22:01:24.901Z,45.20
2022-08-22T22:03:54.210Z,45.50
2022-08-22T22:06:20.952Z,45.70
2022-08-22T22:08:49.002Z,45.80
2022-08-22T22:11:15.894Z,45.90
2022-08-22T22:13:43.316Z,46.00
2022-08-22T22:16:12.173Z,46.10
2022-08-22T22:18:39.702Z,46.30
2022-08-22T22:21:06.646Z,46.40
2022-08-22T22:23:33.382Z,46.40
2022-08-22T22:26:01.215Z,46.50
2022-08-22T22:28:38.174Z,46.60
2022-08-22T22:31:05.607Z,46.70
2022-08-22T22:33:34.172Z,46.90
2022-08-22T22:36:06.931Z,47.00
2022-08-22T22:38:33.921Z,47.20
2022-08-22T22:41:00.854Z,47.30
2022-08-22T22:43:27.733Z,47.30
2022-08-22T22:45:54.733Z,47.40
2022-08-22T22:48:24.039Z,47.50
2022-08-22T22:50:52.664Z,47.60
2022-08-22T22:53:28.377Z,47.60
2022-08-22T22:57:58.804Z,47.80
2022-08-22T23:00:29.733Z,47.80
2022-08-22T23:02:59.004Z,47.90
2022-08-22T23:05:25.777Z,47.90
2022-08-22T23:07:52.505Z,48.00
2022-08-22T23:10:22.120Z,48.10
2022-08-22T23:12:49.107Z,48.20
2022-08-22T23:15:16.738Z,48.20
2022-08-22T23:17:43.802Z,48.40
2022-08-22T23:20:10.640Z,48.50
2022-08-22T23:22:37.524Z,48.60
2022-08-22T23:25:04.690Z,48.70
2022-08-22T23:27:31.574Z,48.90
2022-08-22T23:29:58.306Z,49.00
2022-08-22T23:32:25.069Z,49.00
2022-08-22T23:34:53.209Z,49.00
2022-08-22T23:37:21.256Z,49.10
2022-08-22T23:39:48.626Z,49.20
2022-08-22T23:42:15.975Z,49.30
2022-08-22T23:44:45.138Z,49.40
2022-08-22T23:47:12.594Z,49.50
2022-08-22T23:49:40.569Z,49.80
2022-08-22T23:52:07.974Z,49.90
2022-08-22T23:54:34.842Z,50.10
2022-08-22T23:57:02.448Z,50.20
2022-08-22T23:59:31.012Z,50.30
